Share

Mabel, MN

Eagle Bluff ELC (KMNLANES1) Elev 1003 ft | 43.76 °N, 92.00 °W | Change Station

Current weather conditions updated 33 seconds ago

Mostly Cloudy
Mostly Cloudy
66.5 °F
Feels Like 66.5 °F
N
0.0
Wind Variable Wind from North
Gusts 0.0 mph
Sunrise 6:16 AM
Sunset 7:56 PM
Moon Waning Gibbous

Tomorrow is forecast to be nearly the same temperature as today. Morning thundershowers.

Pressure 29.97 in
Visibility 10.0 miles
Clouds Scattered Clouds 7000 ft
Scattered Clouds 8000 ft
Mostly Cloudy 10000 ft
Dew Point 23 °F
Humidity 19%
Rainfall 0.31 in
Snow Depth Not available.
UV 1 out of 16
Pollen 8.30 out of 12
Air Quality Not available.
Flu Activity Sporadic
METAR KDEH 202235Z AUTO 13007KT 10SM SCT070 SCT080 BKN100 16/15 A2997 RMK AO2

More Conditions Fewer Conditions

Pressure 29.97 in
Visibility 10.0 miles
Clouds Scattered Clouds 7000 ft
Scattered Clouds 8000 ft
Mostly Cloudy 10000 ft
Dew Point 23 °F
Humidity 19%
Rainfall 0.31 in
Snow Depth Not available.
UV 1 out of 16
Pollen 8.30 out of 12
Air Quality Not available.
Flu Activity Sporadic
METAR KDEH 202235Z AUTO 13007KT 10SM SCT070 SCT080 BKN100 16/15 A2997 RMK AO2

More Conditions Fewer Conditions

10-Day Weather Forecast

Almanac

Astronomy

Apr. 20, 2014 Rise Set
Actual Time 6:16 AM CDT 7:56 PM CDT
Civil Twilight 5:46 AM CDT 8:26 PM CDT
Nautical Twilight 5:09 AM CDT 9:03 PM CDT
Astronomical Twilight 4:29 AM CDT 9:43 PM CDT
Moon 12:40 AM CDT 10:33 AM CDT
Length of Visible Light 14h 40m
Length of Day
13h 40m
Tomorrow will be 2m 47s longer.
Waning Gibbous, 66% of the Moon is Illuminated
Today
Waning Gibbous
Apr 22
Last Quarter
Apr 29
New
May 6
First Quarter
May 14
Full

Today's Extremes

State Highs State Lows

Community

  • spring skiing mount Baker WA
    spring skiing mount Baker WA
  • Morning Sun
    Morning Sun
  • after rain
    after rain
  • Columbine
    Columbine
  • Easter Sunrise
    Easter Sunrise

WunderPhotos

Upload Photos

1,703,423 photos uploaded!

WunderBlogs® & News

Nearby

Snow Depth

Station Depth Elevation
No new snow has been reported.

Coastal Water Temperatures

Place Temperature
No Stations Reporting

Earthquake Activity

City Distance Mag. Time & Date
No recent earthquake activity has been reported nearby.
Minimum magnitude displayed is 2.5.

Nearby Weather Stations

Station Location Temp. Dew Point Humidity Wind Precip. Elev Updated Type
Eagle Bluff ELC, Lanesboro, MN 66.5 °F 23 °F 19% North  at  0.0 mph 0.00 in / hr 1003 ft 5:41 PM CDT Normal

Show More Stations Show Fewer Stations

What do you think?

We're not finished. Please let us know what you like, what you don't like, and what you are still missing.